Wardensville, West Virginia
Current Conditions -  °F | °C
As of 12:15 PM on Thursday 27 Nov 2014 (Local Time) from KFRR Reporting Station
Overcast Overcast  
Wind Chill: 34°   Ceiling: 200
Heat Index: 34°   Visibility: 2mi
Dew Point: 34°   Wind: 0mph
Humidity: 100%   Direction: NA
Pressure: 30.04"   Gusts: NA
Location:  39.08°N, 78.6°W
Report Text: KFRR 271715Z AUTO 00000KT 2SM OVC002 01/01 A3004 RMK AO1
Loading
Personal Weather Stations






























Interactive Weather Map New forecast layout! Learn more

10-Day Weather Forecast

Advertisements
Track Severe Weather on mobile